createdAt,value
2018-03-14T00:00:27.780Z,18.13
2018-03-14T00:02:54.168Z,26.87
2018-03-14T00:05:21.265Z,23.97
2018-03-14T00:07:47.682Z,22.43
2018-03-14T00:10:14.072Z,25.50
2018-03-14T00:12:40.632Z,25.60
2018-03-14T00:15:06.988Z,23.17
2018-03-14T00:17:34.117Z,28.27
2018-03-14T00:20:01.265Z,26.13
2018-03-14T00:22:34.697Z,23.93
2018-03-14T00:25:01.844Z,30.60
2018-03-14T00:27:28.196Z,24.60
2018-03-14T00:29:55.280Z,31.20
2018-03-14T00:32:21.664Z,28.67
2018-03-14T00:34:48.100Z,23.60
2018-03-14T00:37:14.460Z,29.47
2018-03-14T00:39:40.863Z,29.83
2018-03-14T00:42:07.280Z,31.90
2018-03-14T00:44:33.624Z,25.33
2018-03-14T00:46:59.984Z,30.47
2018-03-14T00:49:26.330Z,33.33
2018-03-14T00:51:52.710Z,40.80
2018-03-14T00:54:19.124Z,32.93
2018-03-14T00:56:45.492Z,31.30
2018-03-14T00:59:11.884Z,38.93
2018-03-14T01:01:39.029Z,35.60
2018-03-14T01:04:05.396Z,35.00
2018-03-14T01:06:32.500Z,31.40
2018-03-14T01:08:58.884Z,48.77
2018-03-14T01:11:25.244Z,38.10
2018-03-14T01:13:51.764Z,28.60
2018-03-14T01:16:18.127Z,37.53
2018-03-14T01:18:44.484Z,45.10
2018-03-14T01:21:11.585Z,38.40
2018-03-14T01:23:37.956Z,39.60
2018-03-14T01:26:04.372Z,39.30
2018-03-14T01:28:30.721Z,40.93
2018-03-14T01:30:57.109Z,40.03
2018-03-14T01:33:24.200Z,44.40
2018-03-14T01:35:50.668Z,47.23
2018-03-14T01:38:17.068Z,38.03
2018-03-14T01:40:44.920Z,46.60
2018-03-14T01:43:11.268Z,34.37
2018-03-14T01:45:38.414Z,44.97
2018-03-14T01:48:05.740Z,38.47
2018-03-14T01:50:32.105Z,43.53
2018-03-14T01:53:10.719Z,33.23
2018-03-14T01:55:37.125Z,46.23
2018-03-14T01:58:03.509Z,38.10
2018-03-14T02:00:30.612Z,43.20
2018-03-14T02:02:56.960Z,57.07
2018-03-14T02:05:23.316Z,57.13
2018-03-14T02:07:49.680Z,44.80
2018-03-14T02:10:16.796Z,45.50
2018-03-14T02:12:43.149Z,43.07
2018-03-14T02:15:09.505Z,52.93
2018-03-14T02:17:35.844Z,44.80
2018-03-14T02:20:02.234Z,54.20
2018-03-14T02:22:28.594Z,44.73
2018-03-14T02:24:54.944Z,45.63
2018-03-14T02:27:21.308Z,56.83
2018-03-14T02:29:47.673Z,47.40
2018-03-14T02:32:14.773Z,55.33
2018-03-14T02:34:41.115Z,52.20
2018-03-14T02:37:07.496Z,43.13
2018-03-14T02:39:35.336Z,39.97
2018-03-14T02:42:01.735Z,47.43
2018-03-14T02:44:28.312Z,48.63
2018-03-14T02:46:54.727Z,61.27
2018-03-14T02:49:21.060Z,47.67
2018-03-14T02:51:47.430Z,47.90
2018-03-14T02:54:14.506Z,55.27
2018-03-14T02:56:40.877Z,70.43
2018-03-14T02:59:07.220Z,57.70
2018-03-14T03:01:33.569Z,48.33
2018-03-14T03:03:59.920Z,49.80
2018-03-14T03:06:26.260Z,59.10
2018-03-14T03:08:52.578Z,56.77
2018-03-14T03:11:19.652Z,55.10
2018-03-14T03:13:46.036Z,56.13
2018-03-14T03:16:13.864Z,54.77
2018-03-14T03:18:40.204Z,58.70
2018-03-14T03:21:06.512Z,53.63
2018-03-14T03:23:32.850Z,58.90
2018-03-14T03:25:59.172Z,51.13
2018-03-14T03:28:25.499Z,51.30
2018-03-14T03:30:51.837Z,50.40
2018-03-14T03:33:18.180Z,48.77
2018-03-14T03:35:44.509Z,52.53
2018-03-14T03:38:10.864Z,45.57
2018-03-14T03:40:37.217Z,49.77
2018-03-14T03:43:03.575Z,55.27
2018-03-14T03:45:29.941Z,58.93
2018-03-14T03:47:57.040Z,57.20
2018-03-14T03:50:23.428Z,57.83
2018-03-14T03:52:49.745Z,57.13
2018-03-14T03:55:16.048Z,61.90
2018-03-14T03:57:43.136Z,49.23
2018-03-14T04:00:09.448Z,48.70
2018-03-14T04:02:36.536Z,54.17
2018-03-14T04:05:02.980Z,56.27
2018-03-14T04:07:29.434Z,54.33
2018-03-14T04:09:55.776Z,45.20
2018-03-14T04:12:22.165Z,64.47
2018-03-14T04:14:48.584Z,57.73
2018-03-14T04:17:14.889Z,57.80
2018-03-14T04:19:41.300Z,50.77
2018-03-14T04:22:09.116Z,68.27
2018-03-14T04:24:35.477Z,66.70
2018-03-14T04:27:01.832Z,50.70
2018-03-14T04:29:28.217Z,58.17
2018-03-14T04:31:54.616Z,60.17
2018-03-14T04:34:21.251Z,61.40
2018-03-14T04:36:48.392Z,62.50
2018-03-14T04:39:14.764Z,72.77
2018-03-14T04:41:41.116Z,76.47
2018-03-14T04:44:07.486Z,76.00
2018-03-14T04:46:33.854Z,72.63
2018-03-14T04:49:00.936Z,76.47
2018-03-14T04:51:27.305Z,87.57
2018-03-14T04:53:53.673Z,113.90
2018-03-14T04:56:20.046Z,81.87
2018-03-14T04:58:47.141Z,108.47
2018-03-14T05:01:13.569Z,77.93
2018-03-14T05:03:39.967Z,75.93
2018-03-14T05:06:06.409Z,88.03
2018-03-14T05:08:32.727Z,92.37
2018-03-14T05:10:59.120Z,114.70
2018-03-14T05:13:26.172Z,87.23
2018-03-14T05:15:52.577Z,83.77
2018-03-14T05:18:18.936Z,116.43
2018-03-14T05:20:45.305Z,100.50
2018-03-14T05:23:12.617Z,98.63
2018-03-14T05:25:39.095Z,89.63
2018-03-14T05:28:05.535Z,94.97
2018-03-14T05:30:31.997Z,92.70
2018-03-14T05:32:58.389Z,96.73
2018-03-14T05:35:24.820Z,92.63
2018-03-14T05:37:51.306Z,79.93
2018-03-14T05:40:17.704Z,85.00
2018-03-14T05:42:44.040Z,89.87
2018-03-14T05:45:10.408Z,64.70
2018-03-14T05:47:37.581Z,71.83
2018-03-14T05:50:05.305Z,74.00
2018-03-14T05:52:31.673Z,82.27
2018-03-14T05:54:58.040Z,85.43
2018-03-14T05:57:25.202Z,80.33
2018-03-14T05:59:51.574Z,85.57
2018-03-14T06:02:17.987Z,87.83
2018-03-14T06:04:44.376Z,88.53
2018-03-14T06:07:11.582Z,85.23
2018-03-14T06:09:37.969Z,105.00
2018-03-14T06:12:04.348Z,98.23
2018-03-14T06:14:31.621Z,105.33
2018-03-14T06:16:57.984Z,109.67
2018-03-14T06:19:25.108Z,113.33
2018-03-14T06:21:53.056Z,139.23
2018-03-14T06:24:19.437Z,123.13
2018-03-14T06:26:46.308Z,143.67
2018-03-14T06:29:12.697Z,165.67
2018-03-14T06:31:39.120Z,253.23
2018-03-14T06:34:05.449Z,185.33
2018-03-14T06:36:31.935Z,249.90
2018-03-14T06:38:58.280Z,231.87
2018-03-14T06:41:25.506Z,261.47
2018-03-14T06:43:51.866Z,220.13
2018-03-14T06:46:18.224Z,179.27
2018-03-14T06:48:44.588Z,234.70
2018-03-14T06:51:11.195Z,268.27
2018-03-14T06:53:38.414Z,209.93
2018-03-14T06:56:06.424Z,197.30
2018-03-14T06:58:45.114Z,203.83
2018-03-14T07:04:25.902Z,208.47
2018-03-14T07:06:52.364Z,199.57
2018-03-14T07:09:18.976Z,164.97
2018-03-14T07:11:45.363Z,172.00
2018-03-14T07:14:12.503Z,157.47
2018-03-14T07:16:38.964Z,155.13
2018-03-14T07:19:05.419Z,124.43
2018-03-14T07:21:33.321Z,125.73
2018-03-14T07:24:01.227Z,147.47
2018-03-14T07:26:27.591Z,116.43
2018-03-14T07:28:54.053Z,120.30
2018-03-14T07:31:20.501Z,94.00
2018-03-14T07:33:46.933Z,99.23
2018-03-14T07:36:13.309Z,80.80
2018-03-14T07:38:39.765Z,69.23
2018-03-14T07:41:06.198Z,69.83
2018-03-14T07:43:32.587Z,64.07
2018-03-14T07:45:59.719Z,66.33
2018-03-14T07:48:26.842Z,56.80
2018-03-14T07:50:54.288Z,53.70
2018-03-14T07:53:20.639Z,61.60
2018-03-14T07:55:47.828Z,66.30
2018-03-14T07:58:14.182Z,66.13
2018-03-14T08:00:40.581Z,57.10
2018-03-14T08:03:06.980Z,67.13
2018-03-14T08:05:33.468Z,61.47
2018-03-14T08:07:59.924Z,52.97
2018-03-14T08:10:26.352Z,57.47
2018-03-14T08:12:52.721Z,51.50
2018-03-14T08:15:19.128Z,43.93
2018-03-14T08:17:45.538Z,57.23
2018-03-14T08:20:12.091Z,53.70
2018-03-14T08:22:39.256Z,56.93
2018-03-14T08:25:06.406Z,55.57
2018-03-14T08:27:32.798Z,52.23
2018-03-14T08:30:00.053Z,54.77
2018-03-14T08:32:26.424Z,42.57
2018-03-14T08:34:52.848Z,53.70
2018-03-14T08:37:20.768Z,49.20
2018-03-14T08:39:47.165Z,50.60
2018-03-14T08:42:13.604Z,49.83
2018-03-14T08:44:39.982Z,50.50
2018-03-14T08:47:06.388Z,56.27
2018-03-14T08:49:32.725Z,45.97
2018-03-14T08:51:59.136Z,55.20
2018-03-14T08:54:25.578Z,44.10
2018-03-14T08:56:52.023Z,40.20
2018-03-14T08:59:19.143Z,36.80
2018-03-14T09:01:45.524Z,33.43
2018-03-14T09:04:12.260Z,46.43
2018-03-14T09:06:39.444Z,37.57
2018-03-14T09:09:05.825Z,38.10
2018-03-14T09:11:32.237Z,38.47
2018-03-14T09:13:58.629Z,37.73
2018-03-14T09:16:25.090Z,36.90
2018-03-14T09:18:51.500Z,31.20
2018-03-14T09:21:18.687Z,30.37
2018-03-14T09:23:45.084Z,32.73
2018-03-14T09:26:11.545Z,31.00
2018-03-14T09:28:37.985Z,30.13
2018-03-14T09:31:04.509Z,28.70
2018-03-14T09:33:30.901Z,23.63
2018-03-14T09:35:57.292Z,32.30
2018-03-14T09:38:23.713Z,28.10
2018-03-14T09:40:50.125Z,23.17
2018-03-14T09:43:16.553Z,22.90
2018-03-14T09:45:42.964Z,26.70
2018-03-14T09:48:10.099Z,22.07
2018-03-14T09:50:36.494Z,26.10
2018-03-14T09:53:03.634Z,28.13
2018-03-14T09:55:29.997Z,23.27
2018-03-14T09:57:56.425Z,22.77
2018-03-14T10:00:22.833Z,26.37
2018-03-14T10:02:49.274Z,23.03
2018-03-14T10:05:15.681Z,23.80
2018-03-14T10:07:43.597Z,24.60
2018-03-14T10:10:10.760Z,23.93
2018-03-14T10:12:37.178Z,21.23
2018-03-14T10:15:03.608Z,22.97
2018-03-14T10:17:30.041Z,23.53
2018-03-14T10:19:57.291Z,23.73
2018-03-14T10:22:23.738Z,27.80
2018-03-14T10:24:50.861Z,26.47
2018-03-14T10:27:17.286Z,24.10
2018-03-14T10:29:43.848Z,27.10
2018-03-14T10:32:10.206Z,23.33
2018-03-14T10:34:37.420Z,27.70
2018-03-14T10:37:04.565Z,26.23
2018-03-14T10:39:31.087Z,22.50
2018-03-14T10:41:57.486Z,23.47
2018-03-14T10:47:18.489Z,26.20
2018-03-14T10:49:45.682Z,21.20
2018-03-14T10:52:12.056Z,25.60
2018-03-14T10:54:38.453Z,21.87
2018-03-14T10:57:04.810Z,19.97
2018-03-14T10:59:32.007Z,22.00
2018-03-14T11:04:56.645Z,22.33
2018-03-14T11:07:23.887Z,22.23
2018-03-14T11:09:50.267Z,22.40
2018-03-14T11:12:16.924Z,16.63
2018-03-14T11:14:43.296Z,19.43
2018-03-14T11:17:09.688Z,19.50
2018-03-14T11:19:36.909Z,25.37
2018-03-14T11:22:03.373Z,19.83
2018-03-14T11:24:29.804Z,20.13
2018-03-14T11:26:56.898Z,19.17
2018-03-14T11:29:23.279Z,19.80
2018-03-14T11:31:50.405Z,18.47
2018-03-14T11:34:16.930Z,19.50
2018-03-14T11:36:43.303Z,16.23
2018-03-14T11:39:09.637Z,19.53
2018-03-14T11:41:36.060Z,19.00
2018-03-14T11:44:02.464Z,15.17
2018-03-14T11:46:28.965Z,14.77
2018-03-14T11:48:55.341Z,14.70
2018-03-14T11:51:21.736Z,15.40
2018-03-14T11:53:48.125Z,14.70
2018-03-14T11:56:14.523Z,14.00
2018-03-14T11:58:41.092Z,16.53
2018-03-14T12:01:07.513Z,13.00
2018-03-14T12:03:34.628Z,14.97
2018-03-14T12:06:01.025Z,13.87
2018-03-14T12:08:27.475Z,13.60
2018-03-14T12:10:54.078Z,11.70
2018-03-14T12:13:20.496Z,12.83
2018-03-14T12:15:46.903Z,12.93
2018-03-14T12:18:14.068Z,13.37
2018-03-14T12:20:40.510Z,12.33
2018-03-14T12:23:06.896Z,12.23
2018-03-14T12:25:33.310Z,12.20
2018-03-14T12:27:59.730Z,13.73
2018-03-14T12:30:26.133Z,10.90
2018-03-14T12:32:52.522Z,13.67
2018-03-14T12:35:19.716Z,8.73
2018-03-14T12:37:46.879Z,10.43
2018-03-14T12:40:13.277Z,11.33
2018-03-14T12:42:39.713Z,15.50
2018-03-14T12:45:06.112Z,16.33
2018-03-14T12:47:32.519Z,13.80
2018-03-14T12:49:59.060Z,12.43
2018-03-14T12:52:25.460Z,22.43
2018-03-14T12:54:52.576Z,11.57
2018-03-14T12:57:19.042Z,8.00
2018-03-14T12:59:45.534Z,10.30
2018-03-14T13:02:11.958Z,15.93
2018-03-14T13:04:38.313Z,11.50
2018-03-14T13:07:04.705Z,9.90
2018-03-14T13:09:31.080Z,14.30
2018-03-14T13:11:57.538Z,11.90
2018-03-14T13:14:23.986Z,11.10
2018-03-14T13:16:51.861Z,10.63
2018-03-14T13:19:18.272Z,13.00
2018-03-14T13:21:44.696Z,9.53
2018-03-14T13:24:11.246Z,9.33
2018-03-14T13:26:37.675Z,44.70
2018-03-14T13:29:04.149Z,26.03
2018-03-14T13:31:30.601Z,9.93
2018-03-14T13:33:57.045Z,9.03
2018-03-14T13:36:23.436Z,8.70
2018-03-14T13:38:49.914Z,10.17
2018-03-14T13:41:16.367Z,9.70
2018-03-14T13:43:42.772Z,9.60
2018-03-14T13:46:09.417Z,11.87
2018-03-14T13:48:35.864Z,9.37
2018-03-14T13:51:02.312Z,9.73
2018-03-14T13:53:28.812Z,9.40
2018-03-14T13:55:55.176Z,7.23
2018-03-14T13:58:21.667Z,8.93
2018-03-14T14:00:48.069Z,10.77
2018-03-14T14:03:14.501Z,10.23
2018-03-14T14:05:41.598Z,11.60
2018-03-14T14:08:08.303Z,10.80
2018-03-14T14:10:35.503Z,9.97
2018-03-14T14:13:01.990Z,10.00
2018-03-14T14:15:28.454Z,9.43
2018-03-14T14:17:55.816Z,12.10
2018-03-14T14:23:16.057Z,11.60
2018-03-14T14:25:42.525Z,7.33
2018-03-14T14:28:09.682Z,12.10
2018-03-14T14:30:36.172Z,9.00
2018-03-14T14:33:02.632Z,7.30
2018-03-14T14:35:29.776Z,9.67
2018-03-14T14:37:56.145Z,9.10
2018-03-14T14:40:22.541Z,8.33
2018-03-14T14:42:48.941Z,9.83
2018-03-14T14:45:16.096Z,6.80
2018-03-14T14:47:43.224Z,9.60
2018-03-14T14:50:09.645Z,9.20
2018-03-14T14:52:36.226Z,9.00
2018-03-14T14:55:03.084Z,6.50
2018-03-14T14:57:29.558Z,7.70
2018-03-14T14:59:57.436Z,9.60
2018-03-14T15:02:23.873Z,7.50
2018-03-14T15:04:50.336Z,13.20
2018-03-14T15:07:16.804Z,9.27
2018-03-14T15:09:43.268Z,10.93
2018-03-14T15:12:09.696Z,10.80
2018-03-14T15:14:36.155Z,8.47
2018-03-14T15:17:02.601Z,9.30
2018-03-14T15:19:29.068Z,11.80
2018-03-14T15:21:56.271Z,8.30
2018-03-14T15:24:22.916Z,10.43
2018-03-14T15:26:49.316Z,7.37
2018-03-14T15:29:15.726Z,9.43
2018-03-14T15:31:42.945Z,10.33
2018-03-14T15:34:10.864Z,8.53
2018-03-14T15:36:37.293Z,11.43
2018-03-14T15:39:04.920Z,12.63
2018-03-14T15:41:31.334Z,11.13
2018-03-14T15:43:58.452Z,11.57
2018-03-14T15:46:24.851Z,9.87
2018-03-14T15:48:51.200Z,9.60
2018-03-14T15:51:17.620Z,8.93
2018-03-14T15:53:43.981Z,13.20
2018-03-14T15:56:11.176Z,11.57
2018-03-14T15:58:37.524Z,11.53
2018-03-14T16:01:03.933Z,9.77
2018-03-14T16:03:30.329Z,10.70
2018-03-14T16:05:56.769Z,12.33
2018-03-14T16:08:23.249Z,9.40
2018-03-14T16:10:49.661Z,9.60
2018-03-14T16:13:16.081Z,9.70
2018-03-14T16:15:43.212Z,12.67
2018-03-14T16:18:10.418Z,13.80
2018-03-14T16:20:36.876Z,13.37
2018-03-14T16:23:03.289Z,13.80
2018-03-14T16:25:29.646Z,11.93
2018-03-14T16:27:56.017Z,9.40
2018-03-14T16:30:23.147Z,13.37
2018-03-14T16:32:49.520Z,12.03
2018-03-14T16:35:15.906Z,11.73
2018-03-14T16:37:43.276Z,9.40
2018-03-14T16:40:09.640Z,14.00
2018-03-14T16:42:36.102Z,11.37
2018-03-14T16:45:02.596Z,10.50
2018-03-14T16:47:29.723Z,11.87
2018-03-14T16:49:56.085Z,13.27
2018-03-14T16:52:22.536Z,10.77
2018-03-14T16:54:48.969Z,11.10
2018-03-14T16:57:15.337Z,10.23
2018-03-14T16:59:41.706Z,14.70
2018-03-14T17:02:08.124Z,11.77
2018-03-14T17:04:35.301Z,8.27
2018-03-14T17:07:01.646Z,9.37
2018-03-14T17:09:28.823Z,12.90
2018-03-14T17:11:55.246Z,9.23
2018-03-14T17:14:27.279Z,9.67
2018-03-14T17:16:48.009Z,16.83
2018-03-14T17:19:14.408Z,14.53
2018-03-14T17:21:40.776Z,7.87
2018-03-14T17:24:07.220Z,10.63
2018-03-14T17:26:33.595Z,10.27
2018-03-14T17:29:00.015Z,9.43
2018-03-14T17:31:26.451Z,9.20
2018-03-14T17:33:53.552Z,8.73
2018-03-14T17:36:19.889Z,9.90
2018-03-14T17:38:47.009Z,9.77
2018-03-14T17:41:13.399Z,13.10
2018-03-14T17:43:39.775Z,7.53
2018-03-14T17:46:06.227Z,9.73
2018-03-14T17:48:32.604Z,8.23
2018-03-14T17:50:59.008Z,9.17
2018-03-14T17:53:26.445Z,10.60
2018-03-14T17:55:52.958Z,11.30
2018-03-14T17:58:19.354Z,14.47
2018-03-14T18:00:46.472Z,10.40
2018-03-14T18:03:12.856Z,12.50
2018-03-14T18:05:40.023Z,11.40
2018-03-14T18:08:06.423Z,10.30
2018-03-14T18:10:32.777Z,9.20
2018-03-14T18:12:59.140Z,14.73
2018-03-14T18:15:25.506Z,11.97
2018-03-14T18:17:52.596Z,8.97
2018-03-14T18:20:18.957Z,9.33
2018-03-14T18:22:46.084Z,10.90
2018-03-14T18:25:12.491Z,10.87
2018-03-14T18:27:38.852Z,10.10
2018-03-14T18:30:05.657Z,9.13
2018-03-14T18:32:32.043Z,9.70
2018-03-14T18:34:58.548Z,12.13
2018-03-14T18:37:24.884Z,12.50
2018-03-14T18:39:51.243Z,9.00
2018-03-14T18:42:17.591Z,9.20
2018-03-14T18:44:44.880Z,11.97
2018-03-14T18:47:11.992Z,12.43
2018-03-14T18:49:39.068Z,7.90
2018-03-14T18:52:05.444Z,11.80
2018-03-14T18:54:33.256Z,9.27
2018-03-14T18:56:59.632Z,8.97
2018-03-14T18:59:26.020Z,15.63
2018-03-14T19:01:52.378Z,10.93
2018-03-14T19:04:19.474Z,8.17
2018-03-14T19:06:46.017Z,9.17
2018-03-14T19:09:12.384Z,9.17
2018-03-14T19:11:38.776Z,11.83
2018-03-14T19:14:05.174Z,9.90
2018-03-14T19:16:31.572Z,12.63
2018-03-14T19:18:57.921Z,9.70
2018-03-14T19:21:24.325Z,8.70
2018-03-14T19:23:50.680Z,9.77
2018-03-14T19:26:17.804Z,8.37
2018-03-14T19:28:44.204Z,11.30
2018-03-14T19:31:10.622Z,10.63
2018-03-14T19:33:36.999Z,7.70
2018-03-14T19:36:03.397Z,9.30
2018-03-14T19:38:30.507Z,9.00
2018-03-14T19:40:56.872Z,12.67
2018-03-14T19:43:24.737Z,9.73
2018-03-14T19:45:51.137Z,14.00
2018-03-14T19:48:18.236Z,10.47
2018-03-14T19:50:44.579Z,10.30
2018-03-14T19:53:10.923Z,13.73
2018-03-14T19:55:37.280Z,11.37
2018-03-14T19:58:03.715Z,9.57
2018-03-14T20:00:30.036Z,9.90
2018-03-14T20:02:56.380Z,8.03
2018-03-14T20:05:22.791Z,8.07
2018-03-14T20:07:49.164Z,12.63
2018-03-14T20:10:15.508Z,10.70
2018-03-14T20:12:42.706Z,15.00
2018-03-14T20:15:09.088Z,10.37
2018-03-14T20:17:35.432Z,9.93
2018-03-14T20:20:02.958Z,11.63
2018-03-14T20:22:30.136Z,14.20
2018-03-14T20:24:56.521Z,11.43
2018-03-14T20:27:23.617Z,12.17
2018-03-14T20:29:50.029Z,9.97
2018-03-14T20:32:17.192Z,15.20
2018-03-14T20:34:44.238Z,11.67
2018-03-14T20:37:11.361Z,13.53
2018-03-14T20:39:37.720Z,11.03
2018-03-14T20:42:04.062Z,9.60
2018-03-14T20:44:30.404Z,12.13
2018-03-14T20:46:56.737Z,9.90
2018-03-14T20:49:23.116Z,10.83
2018-03-14T20:51:50.224Z,12.90
2018-03-14T20:54:16.768Z,13.47
2018-03-14T20:56:43.125Z,12.27
2018-03-14T21:02:03.373Z,15.27
2018-03-14T21:04:30.498Z,15.37
2018-03-14T21:06:56.824Z,13.33
2018-03-14T21:09:23.216Z,13.03
2018-03-14T21:11:49.573Z,9.10
2018-03-14T21:14:16.720Z,13.53
2018-03-14T21:16:43.133Z,8.77
2018-03-14T21:19:09.512Z,9.20
2018-03-14T21:21:35.881Z,11.80
2018-03-14T21:24:03.040Z,10.20
2018-03-14T21:26:29.432Z,11.60
2018-03-14T21:28:55.796Z,8.20
2018-03-14T21:31:22.186Z,10.17
2018-03-14T21:33:49.265Z,8.50
2018-03-14T21:36:15.631Z,10.33
2018-03-14T21:38:42.060Z,8.03
2018-03-14T21:41:08.455Z,10.17
2018-03-14T21:43:36.274Z,8.23
2018-03-14T21:46:02.666Z,9.07
2018-03-14T21:48:29.141Z,11.13
2018-03-14T21:50:55.680Z,8.00
2018-03-14T21:53:22.823Z,12.17
2018-03-14T21:55:49.367Z,13.30
2018-03-14T21:58:15.812Z,7.70
2018-03-14T22:00:42.954Z,11.83
2018-03-14T22:03:10.099Z,8.83
2018-03-14T22:05:36.476Z,13.77
2018-03-14T22:08:02.870Z,11.13
2018-03-14T22:10:29.249Z,10.10
2018-03-14T22:12:55.617Z,12.37
2018-03-14T22:15:21.989Z,12.60
2018-03-14T22:17:48.407Z,11.17
2018-03-14T22:20:14.812Z,11.90
2018-03-14T22:22:41.564Z,12.80
2018-03-14T22:25:07.961Z,11.90
2018-03-14T22:27:34.345Z,18.13
2018-03-14T22:30:00.725Z,14.03
2018-03-14T22:32:27.845Z,11.77
2018-03-14T22:34:54.224Z,19.93
2018-03-14T22:37:21.314Z,13.83
2018-03-14T22:39:47.729Z,13.27
2018-03-14T22:42:14.116Z,11.70
2018-03-14T22:44:40.476Z,12.37
2018-03-14T22:47:06.886Z,17.53
2018-03-14T22:49:33.973Z,15.70
2018-03-14T22:52:00.336Z,15.90
2018-03-14T22:54:26.675Z,16.70
2018-03-14T22:56:53.069Z,14.17
2018-03-14T22:59:20.188Z,13.40
2018-03-14T23:01:46.576Z,14.67
2018-03-14T23:04:12.908Z,20.40
2018-03-14T23:06:40.018Z,14.90
2018-03-14T23:09:06.405Z,16.40
2018-03-14T23:11:38.757Z,18.03
2018-03-14T23:14:05.127Z,16.83
2018-03-14T23:16:32.298Z,18.03
2018-03-14T23:18:58.900Z,20.00
2018-03-14T23:21:25.264Z,15.87
2018-03-14T23:23:51.947Z,17.90
2018-03-14T23:26:18.381Z,20.33
2018-03-14T23:28:44.724Z,17.37
2018-03-14T23:31:11.874Z,18.10
2018-03-14T23:33:38.384Z,21.50
2018-03-14T23:36:04.757Z,16.03
2018-03-14T23:38:31.129Z,16.87
2018-03-14T23:40:57.466Z,23.00
2018-03-14T23:43:23.842Z,18.67
2018-03-14T23:45:50.182Z,23.30
2018-03-14T23:48:16.593Z,17.43
2018-03-14T23:50:43.686Z,21.77
2018-03-14T23:53:10.402Z,19.83
2018-03-14T23:55:37.503Z,21.30
2018-03-14T23:58:03.901Z,25.83
